sensor_id;sensor_type;location;lat;lon;timestamp;P1;durP1;ratioP1;P2;durP2;ratioP2
21661;SDS011;10992;48.170;8.596;2024-03-07T00:01:05;34.38;;;20.98;;
21661;SDS011;10992;48.170;8.596;2024-03-07T00:03:33;36.70;;;21.23;;
21661;SDS011;10992;48.170;8.596;2024-03-07T00:06:19;37.17;;;21.15;;
21661;SDS011;10992;48.170;8.596;2024-03-07T00:08:47;34.75;;;21.00;;
21661;SDS011;10992;48.170;8.596;2024-03-07T00:11:15;35.28;;;20.38;;
21661;SDS011;10992;48.170;8.596;2024-03-07T00:13:41;34.38;;;19.77;;
21661;SDS011;10992;48.170;8.596;2024-03-07T00:16:09;40.17;;;20.02;;
21661;SDS011;10992;48.170;8.596;2024-03-07T00:18:36;32.55;;;19.33;;
21661;SDS011;10992;48.170;8.596;2024-03-07T00:21:04;36.67;;;18.50;;
21661;SDS011;10992;48.170;8.596;2024-03-07T00:23:31;31.63;;;18.27;;
21661;SDS011;10992;48.170;8.596;2024-03-07T00:25:58;30.60;;;18.20;;
21661;SDS011;10992;48.170;8.596;2024-03-07T00:28:25;30.55;;;17.77;;
21661;SDS011;10992;48.170;8.596;2024-03-07T00:30:55;32.22;;;18.92;;
21661;SDS011;10992;48.170;8.596;2024-03-07T00:33:22;26.90;;;18.13;;
21661;SDS011;10992;48.170;8.596;2024-03-07T00:35:49;26.20;;;17.42;;
21661;SDS011;10992;48.170;8.596;2024-03-07T00:38:16;27.13;;;18.92;;
21661;SDS011;10992;48.170;8.596;2024-03-07T00:40:43;24.33;;;17.30;;
21661;SDS011;10992;48.170;8.596;2024-03-07T00:43:10;26.88;;;17.58;;
21661;SDS011;10992;48.170;8.596;2024-03-07T00:45:37;24.25;;;16.23;;
21661;SDS011;10992;48.170;8.596;2024-03-07T00:48:04;24.40;;;16.55;;
21661;SDS011;10992;48.170;8.596;2024-03-07T00:50:31;24.50;;;17.13;;
21661;SDS011;10992;48.170;8.596;2024-03-07T00:52:58;24.75;;;16.90;;
21661;SDS011;10992;48.170;8.596;2024-03-07T00:55:26;24.58;;;17.10;;
21661;SDS011;10992;48.170;8.596;2024-03-07T00:57:52;24.17;;;16.45;;
21661;SDS011;10992;48.170;8.596;2024-03-07T01:00:20;28.70;;;16.50;;
21661;SDS011;10992;48.170;8.596;2024-03-07T01:02:48;24.33;;;17.45;;
21661;SDS011;10992;48.170;8.596;2024-03-07T01:05:15;39.75;;;18.52;;
21661;SDS011;10992;48.170;8.596;2024-03-07T01:07:44;48.65;;;21.40;;
21661;SDS011;10992;48.170;8.596;2024-03-07T01:10:13;88.18;;;23.13;;
21661;SDS011;10992;48.170;8.596;2024-03-07T01:12:41;122.30;;;26.40;;
21661;SDS011;10992;48.170;8.596;2024-03-07T01:15:09;122.78;;;26.90;;
21661;SDS011;10992;48.170;8.596;2024-03-07T01:17:38;109.22;;;27.90;;
21661;SDS011;10992;48.170;8.596;2024-03-07T01:20:05;82.00;;;27.25;;
21661;SDS011;10992;48.170;8.596;2024-03-07T01:22:35;69.80;;;29.05;;
21661;SDS011;10992;48.170;8.596;2024-03-07T01:25:02;160.68;;;30.70;;
21661;SDS011;10992;48.170;8.596;2024-03-07T01:27:31;167.65;;;35.95;;
21661;SDS011;10992;48.170;8.596;2024-03-07T01:29:58;121.63;;;34.70;;
21661;SDS011;10992;48.170;8.596;2024-03-07T01:32:25;148.70;;;36.53;;
21661;SDS011;10992;48.170;8.596;2024-03-07T01:34:52;100.32;;;38.33;;
21661;SDS011;10992;48.170;8.596;2024-03-07T01:37:19;83.80;;;36.17;;
21661;SDS011;10992;48.170;8.596;2024-03-07T01:39:46;72.15;;;35.45;;
21661;SDS011;10992;48.170;8.596;2024-03-07T01:42:13;67.68;;;34.42;;
21661;SDS011;10992;48.170;8.596;2024-03-07T01:44:40;85.18;;;35.95;;
21661;SDS011;10992;48.170;8.596;2024-03-07T01:47:07;72.43;;;37.00;;
21661;SDS011;10992;48.170;8.596;2024-03-07T01:49:35;69.88;;;37.13;;
21661;SDS011;10992;48.170;8.596;2024-03-07T01:52:02;74.22;;;37.63;;
21661;SDS011;10992;48.170;8.596;2024-03-07T01:54:31;73.07;;;36.47;;
21661;SDS011;10992;48.170;8.596;2024-03-07T01:56:59;78.22;;;38.15;;
21661;SDS011;10992;48.170;8.596;2024-03-07T01:59:27;78.57;;;39.63;;
21661;SDS011;10992;48.170;8.596;2024-03-07T02:01:56;81.63;;;40.05;;
21661;SDS011;10992;48.170;8.596;2024-03-07T02:04:23;79.70;;;40.50;;
21661;SDS011;10992;48.170;8.596;2024-03-07T02:06:50;85.75;;;40.58;;
21661;SDS011;10992;48.170;8.596;2024-03-07T02:09:19;81.25;;;40.50;;
21661;SDS011;10992;48.170;8.596;2024-03-07T02:11:47;87.57;;;40.28;;
21661;SDS011;10992;48.170;8.596;2024-03-07T02:14:15;80.32;;;38.38;;
21661;SDS011;10992;48.170;8.596;2024-03-07T02:16:43;78.03;;;38.67;;
21661;SDS011;10992;48.170;8.596;2024-03-07T02:19:13;78.07;;;38.72;;
21661;SDS011;10992;48.170;8.596;2024-03-07T02:21:42;85.57;;;41.58;;
21661;SDS011;10992;48.170;8.596;2024-03-07T02:24:09;79.38;;;40.65;;
21661;SDS011;10992;48.170;8.596;2024-03-07T02:26:36;87.15;;;40.75;;
21661;SDS011;10992;48.170;8.596;2024-03-07T02:29:03;81.38;;;41.75;;
21661;SDS011;10992;48.170;8.596;2024-03-07T02:31:30;83.78;;;41.17;;
21661;SDS011;10992;48.170;8.596;2024-03-07T02:34:04;92.82;;;42.35;;
21661;SDS011;10992;48.170;8.596;2024-03-07T02:36:31;78.30;;;41.03;;
21661;SDS011;10992;48.170;8.596;2024-03-07T02:38:58;83.18;;;41.55;;
21661;SDS011;10992;48.170;8.596;2024-03-07T02:41:25;84.53;;;42.85;;
21661;SDS011;10992;48.170;8.596;2024-03-07T02:43:52;85.82;;;40.63;;
21661;SDS011;10992;48.170;8.596;2024-03-07T02:46:19;88.85;;;42.13;;
21661;SDS011;10992;48.170;8.596;2024-03-07T02:48:46;85.55;;;43.63;;
21661;SDS011;10992;48.170;8.596;2024-03-07T02:51:13;86.60;;;41.25;;
21661;SDS011;10992;48.170;8.596;2024-03-07T02:53:40;82.72;;;41.85;;
21661;SDS011;10992;48.170;8.596;2024-03-07T02:56:07;87.88;;;42.42;;
21661;SDS011;10992;48.170;8.596;2024-03-07T02:58:36;82.38;;;41.38;;
21661;SDS011;10992;48.170;8.596;2024-03-07T03:01:03;78.55;;;40.53;;
21661;SDS011;10992;48.170;8.596;2024-03-07T03:03:30;80.35;;;40.90;;
21661;SDS011;10992;48.170;8.596;2024-03-07T03:06:00;97.15;;;39.03;;
21661;SDS011;10992;48.170;8.596;2024-03-07T03:08:28;93.68;;;42.15;;
21661;SDS011;10992;48.170;8.596;2024-03-07T03:10:55;92.75;;;39.55;;
21661;SDS011;10992;48.170;8.596;2024-03-07T03:13:23;90.97;;;40.63;;
21661;SDS011;10992;48.170;8.596;2024-03-07T03:15:54;138.38;;;41.28;;
21661;SDS011;10992;48.170;8.596;2024-03-07T03:18:22;112.97;;;41.70;;
21661;SDS011;10992;48.170;8.596;2024-03-07T03:20:50;94.82;;;41.10;;
21661;SDS011;10992;48.170;8.596;2024-03-07T03:23:18;118.50;;;42.13;;
21661;SDS011;10992;48.170;8.596;2024-03-07T03:25:48;93.45;;;41.08;;
21661;SDS011;10992;48.170;8.596;2024-03-07T03:28:16;105.65;;;42.25;;
21661;SDS011;10992;48.170;8.596;2024-03-07T03:30:45;99.20;;;44.28;;
21661;SDS011;10992;48.170;8.596;2024-03-07T03:33:13;103.28;;;43.63;;
21661;SDS011;10992;48.170;8.596;2024-03-07T03:35:40;94.32;;;43.08;;
21661;SDS011;10992;48.170;8.596;2024-03-07T03:38:07;86.15;;;43.10;;
21661;SDS011;10992;48.170;8.596;2024-03-07T03:40:35;96.85;;;41.28;;
21661;SDS011;10992;48.170;8.596;2024-03-07T03:43:02;89.35;;;42.10;;
21661;SDS011;10992;48.170;8.596;2024-03-07T03:45:29;106.72;;;44.20;;
21661;SDS011;10992;48.170;8.596;2024-03-07T03:47:59;99.18;;;43.65;;
21661;SDS011;10992;48.170;8.596;2024-03-07T03:50:26;89.05;;;43.05;;
21661;SDS011;10992;48.170;8.596;2024-03-07T03:52:55;86.07;;;44.88;;
21661;SDS011;10992;48.170;8.596;2024-03-07T03:55:23;81.65;;;45.88;;
21661;SDS011;10992;48.170;8.596;2024-03-07T03:57:50;78.97;;;42.10;;
21661;SDS011;10992;48.170;8.596;2024-03-07T04:00:17;89.68;;;43.92;;
21661;SDS011;10992;48.170;8.596;2024-03-07T04:02:45;103.78;;;45.55;;
21661;SDS011;10992;48.170;8.596;2024-03-07T04:05:17;84.82;;;42.10;;
21661;SDS011;10992;48.170;8.596;2024-03-07T04:07:45;85.35;;;42.13;;
21661;SDS011;10992;48.170;8.596;2024-03-07T04:10:12;85.80;;;43.95;;
21661;SDS011;10992;48.170;8.596;2024-03-07T04:12:41;85.18;;;43.35;;
21661;SDS011;10992;48.170;8.596;2024-03-07T04:15:09;86.75;;;44.00;;
21661;SDS011;10992;48.170;8.596;2024-03-07T04:17:38;80.95;;;41.92;;
21661;SDS011;10992;48.170;8.596;2024-03-07T04:20:05;87.97;;;44.47;;
21661;SDS011;10992;48.170;8.596;2024-03-07T04:22:33;83.78;;;43.08;;
21661;SDS011;10992;48.170;8.596;2024-03-07T04:25:01;103.72;;;45.60;;
21661;SDS011;10992;48.170;8.596;2024-03-07T04:27:28;85.60;;;44.83;;
21661;SDS011;10992;48.170;8.596;2024-03-07T04:29:56;81.72;;;43.33;;
21661;SDS011;10992;48.170;8.596;2024-03-07T04:32:23;87.95;;;42.83;;
21661;SDS011;10992;48.170;8.596;2024-03-07T04:34:50;89.05;;;43.88;;
21661;SDS011;10992;48.170;8.596;2024-03-07T04:37:17;86.15;;;43.28;;
21661;SDS011;10992;48.170;8.596;2024-03-07T04:39:44;94.95;;;43.17;;
21661;SDS011;10992;48.170;8.596;2024-03-07T04:42:12;85.43;;;43.28;;
21661;SDS011;10992;48.170;8.596;2024-03-07T04:44:39;85.45;;;44.92;;
21661;SDS011;10992;48.170;8.596;2024-03-07T04:47:06;85.38;;;42.63;;
21661;SDS011;10992;48.170;8.596;2024-03-07T04:49:34;86.38;;;45.72;;
21661;SDS011;10992;48.170;8.596;2024-03-07T04:52:02;90.00;;;44.90;;
21661;SDS011;10992;48.170;8.596;2024-03-07T04:54:30;90.45;;;46.42;;
21661;SDS011;10992;48.170;8.596;2024-03-07T04:57:00;93.85;;;47.78;;
21661;SDS011;10992;48.170;8.596;2024-03-07T04:59:28;84.63;;;44.83;;
21661;SDS011;10992;48.170;8.596;2024-03-07T05:01:55;85.47;;;45.95;;
21661;SDS011;10992;48.170;8.596;2024-03-07T05:04:22;89.80;;;45.85;;
21661;SDS011;10992;48.170;8.596;2024-03-07T05:06:50;86.70;;;46.05;;
21661;SDS011;10992;48.170;8.596;2024-03-07T05:09:17;91.78;;;46.47;;
21661;SDS011;10992;48.170;8.596;2024-03-07T05:11:52;88.95;;;47.40;;
21661;SDS011;10992;48.170;8.596;2024-03-07T05:14:21;89.60;;;45.10;;
21661;SDS011;10992;48.170;8.596;2024-03-07T05:16:52;82.50;;;43.55;;
21661;SDS011;10992;48.170;8.596;2024-03-07T05:19:37;81.47;;;44.90;;
21661;SDS011;10992;48.170;8.596;2024-03-07T05:22:04;86.53;;;43.80;;
21661;SDS011;10992;48.170;8.596;2024-03-07T05:24:31;88.95;;;44.95;;
21661;SDS011;10992;48.170;8.596;2024-03-07T05:27:00;81.38;;;44.63;;
21661;SDS011;10992;48.170;8.596;2024-03-07T05:29:27;86.70;;;44.88;;
21661;SDS011;10992;48.170;8.596;2024-03-07T05:31:54;84.32;;;45.42;;
21661;SDS011;10992;48.170;8.596;2024-03-07T05:34:21;92.75;;;46.78;;
21661;SDS011;10992;48.170;8.596;2024-03-07T05:36:50;86.75;;;45.38;;
21661;SDS011;10992;48.170;8.596;2024-03-07T05:39:17;86.80;;;45.20;;
21661;SDS011;10992;48.170;8.596;2024-03-07T05:41:45;84.55;;;45.72;;
21661;SDS011;10992;48.170;8.596;2024-03-07T05:44:13;83.45;;;44.60;;
21661;SDS011;10992;48.170;8.596;2024-03-07T05:46:41;88.60;;;46.63;;
21661;SDS011;10992;48.170;8.596;2024-03-07T05:49:13;84.80;;;45.25;;
21661;SDS011;10992;48.170;8.596;2024-03-07T05:51:41;85.28;;;45.63;;
21661;SDS011;10992;48.170;8.596;2024-03-07T05:54:11;84.70;;;46.03;;
21661;SDS011;10992;48.170;8.596;2024-03-07T05:56:39;91.88;;;47.22;;
21661;SDS011;10992;48.170;8.596;2024-03-07T05:59:07;87.72;;;45.75;;
21661;SDS011;10992;48.170;8.596;2024-03-07T06:01:38;87.28;;;45.45;;
21661;SDS011;10992;48.170;8.596;2024-03-07T06:04:05;87.88;;;47.00;;
21661;SDS011;10992;48.170;8.596;2024-03-07T06:06:34;86.65;;;46.13;;
21661;SDS011;10992;48.170;8.596;2024-03-07T06:09:03;91.63;;;47.53;;
21661;SDS011;10992;48.170;8.596;2024-03-07T06:11:35;81.43;;;46.53;;
21661;SDS011;10992;48.170;8.596;2024-03-07T06:14:05;90.57;;;48.35;;
21661;SDS011;10992;48.170;8.596;2024-03-07T06:16:35;84.38;;;46.85;;
21661;SDS011;10992;48.170;8.596;2024-03-07T06:19:03;89.50;;;47.10;;
21661;SDS011;10992;48.170;8.596;2024-03-07T06:21:36;91.80;;;50.15;;
21661;SDS011;10992;48.170;8.596;2024-03-07T06:24:05;89.07;;;48.63;;
21661;SDS011;10992;48.170;8.596;2024-03-07T06:26:35;96.10;;;50.92;;
21661;SDS011;10992;48.170;8.596;2024-03-07T06:29:22;95.90;;;50.05;;
21661;SDS011;10992;48.170;8.596;2024-03-07T06:31:50;87.80;;;47.92;;
21661;SDS011;10992;48.170;8.596;2024-03-07T06:34:17;88.00;;;47.85;;
21661;SDS011;10992;48.170;8.596;2024-03-07T06:36:44;94.45;;;48.40;;
21661;SDS011;10992;48.170;8.596;2024-03-07T06:39:11;91.35;;;46.80;;
21661;SDS011;10992;48.170;8.596;2024-03-07T06:41:38;86.40;;;47.90;;
21661;SDS011;10992;48.170;8.596;2024-03-07T06:44:06;89.82;;;50.05;;
21661;SDS011;10992;48.170;8.596;2024-03-07T06:46:33;85.78;;;46.65;;
21661;SDS011;10992;48.170;8.596;2024-03-07T06:49:01;95.50;;;49.78;;
21661;SDS011;10992;48.170;8.596;2024-03-07T06:51:28;93.53;;;48.97;;
21661;SDS011;10992;48.170;8.596;2024-03-07T06:53:55;96.28;;;49.42;;
21661;SDS011;10992;48.170;8.596;2024-03-07T06:56:23;85.10;;;47.50;;
21661;SDS011;10992;48.170;8.596;2024-03-07T06:58:52;83.55;;;47.15;;
21661;SDS011;10992;48.170;8.596;2024-03-07T07:01:19;80.47;;;44.25;;
21661;SDS011;10992;48.170;8.596;2024-03-07T07:03:47;84.15;;;45.15;;
21661;SDS011;10992;48.170;8.596;2024-03-07T07:06:15;80.85;;;44.38;;
21661;SDS011;10992;48.170;8.596;2024-03-07T07:08:43;89.10;;;46.72;;
21661;SDS011;10992;48.170;8.596;2024-03-07T07:11:11;88.78;;;46.35;;
21661;SDS011;10992;48.170;8.596;2024-03-07T07:13:39;87.90;;;48.92;;
21661;SDS011;10992;48.170;8.596;2024-03-07T07:16:05;84.03;;;47.10;;
21661;SDS011;10992;48.170;8.596;2024-03-07T07:18:33;83.88;;;44.63;;
21661;SDS011;10992;48.170;8.596;2024-03-07T07:21:02;84.15;;;46.35;;
21661;SDS011;10992;48.170;8.596;2024-03-07T07:23:30;88.78;;;48.30;;
21661;SDS011;10992;48.170;8.596;2024-03-07T07:25:57;91.05;;;46.78;;
21661;SDS011;10992;48.170;8.596;2024-03-07T07:28:24;92.28;;;47.33;;
21661;SDS011;10992;48.170;8.596;2024-03-07T07:30:50;91.35;;;49.47;;
21661;SDS011;10992;48.170;8.596;2024-03-07T07:33:17;92.90;;;47.63;;
21661;SDS011;10992;48.170;8.596;2024-03-07T07:35:45;89.13;;;49.17;;
21661;SDS011;10992;48.170;8.596;2024-03-07T07:38:12;84.53;;;45.67;;
21661;SDS011;10992;48.170;8.596;2024-03-07T07:40:41;90.53;;;48.10;;
21661;SDS011;10992;48.170;8.596;2024-03-07T07:43:09;80.15;;;46.60;;
21661;SDS011;10992;48.170;8.596;2024-03-07T07:45:51;82.78;;;46.28;;
21661;SDS011;10992;48.170;8.596;2024-03-07T07:48:19;80.47;;;45.90;;
21661;SDS011;10992;48.170;8.596;2024-03-07T07:50:48;73.93;;;42.40;;
21661;SDS011;10992;48.170;8.596;2024-03-07T07:53:17;79.95;;;43.78;;
21661;SDS011;10992;48.170;8.596;2024-03-07T07:55:44;75.78;;;43.13;;
21661;SDS011;10992;48.170;8.596;2024-03-07T07:58:13;70.28;;;42.00;;
21661;SDS011;10992;48.170;8.596;2024-03-07T08:00:40;72.13;;;42.22;;
21661;SDS011;10992;48.170;8.596;2024-03-07T08:03:09;78.07;;;43.53;;
21661;SDS011;10992;48.170;8.596;2024-03-07T08:05:37;71.22;;;42.35;;
21661;SDS011;10992;48.170;8.596;2024-03-07T08:08:05;72.18;;;42.00;;
21661;SDS011;10992;48.170;8.596;2024-03-07T08:10:34;73.53;;;43.08;;
21661;SDS011;10992;48.170;8.596;2024-03-07T08:13:02;70.20;;;41.47;;
21661;SDS011;10992;48.170;8.596;2024-03-07T08:15:32;76.63;;;42.05;;
21661;SDS011;10992;48.170;8.596;2024-03-07T08:17:59;70.65;;;41.30;;
21661;SDS011;10992;48.170;8.596;2024-03-07T08:20:27;69.10;;;39.10;;
21661;SDS011;10992;48.170;8.596;2024-03-07T08:22:55;70.85;;;42.28;;
21661;SDS011;10992;48.170;8.596;2024-03-07T08:25:23;73.82;;;41.85;;
21661;SDS011;10992;48.170;8.596;2024-03-07T08:27:52;68.40;;;39.83;;
21661;SDS011;10992;48.170;8.596;2024-03-07T08:30:20;68.55;;;40.55;;
21661;SDS011;10992;48.170;8.596;2024-03-07T08:32:51;73.60;;;41.38;;
21661;SDS011;10992;48.170;8.596;2024-03-07T08:35:19;68.35;;;39.63;;
21661;SDS011;10992;48.170;8.596;2024-03-07T08:37:47;63.78;;;36.85;;
21661;SDS011;10992;48.170;8.596;2024-03-07T08:40:20;61.78;;;37.33;;
21661;SDS011;10992;48.170;8.596;2024-03-07T08:42:54;61.65;;;36.83;;
21661;SDS011;10992;48.170;8.596;2024-03-07T08:45:21;61.92;;;36.03;;
21661;SDS011;10992;48.170;8.596;2024-03-07T08:47:49;57.53;;;34.75;;
21661;SDS011;10992;48.170;8.596;2024-03-07T08:50:17;59.13;;;34.75;;
21661;SDS011;10992;48.170;8.596;2024-03-07T08:52:44;53.50;;;32.15;;
21661;SDS011;10992;48.170;8.596;2024-03-07T08:55:13;55.55;;;32.13;;
21661;SDS011;10992;48.170;8.596;2024-03-07T08:57:44;51.97;;;30.45;;
21661;SDS011;10992;48.170;8.596;2024-03-07T09:00:13;53.35;;;32.35;;
21661;SDS011;10992;48.170;8.596;2024-03-07T09:02:56;56.80;;;33.45;;
21661;SDS011;10992;48.170;8.596;2024-03-07T09:05:28;53.05;;;33.65;;
21661;SDS011;10992;48.170;8.596;2024-03-07T09:07:56;58.50;;;35.63;;
21661;SDS011;10992;48.170;8.596;2024-03-07T09:10:23;54.33;;;32.30;;
21661;SDS011;10992;48.170;8.596;2024-03-07T09:12:57;52.13;;;31.63;;
21661;SDS011;10992;48.170;8.596;2024-03-07T09:15:24;54.13;;;31.70;;
21661;SDS011;10992;48.170;8.596;2024-03-07T09:17:52;46.30;;;29.88;;
21661;SDS011;10992;48.170;8.596;2024-03-07T09:20:20;48.47;;;29.40;;
21661;SDS011;10992;48.170;8.596;2024-03-07T09:22:47;54.22;;;32.92;;
21661;SDS011;10992;48.170;8.596;2024-03-07T09:25:15;50.75;;;31.15;;
21661;SDS011;10992;48.170;8.596;2024-03-07T09:27:43;49.90;;;31.20;;
21661;SDS011;10992;48.170;8.596;2024-03-07T09:30:11;52.30;;;31.50;;
21661;SDS011;10992;48.170;8.596;2024-03-07T09:32:42;56.25;;;33.83;;
21661;SDS011;10992;48.170;8.596;2024-03-07T09:35:10;53.45;;;32.38;;
21661;SDS011;10992;48.170;8.596;2024-03-07T09:37:43;56.38;;;34.50;;
21661;SDS011;10992;48.170;8.596;2024-03-07T09:40:10;60.33;;;33.20;;
21661;SDS011;10992;48.170;8.596;2024-03-07T09:42:43;59.40;;;35.28;;
21661;SDS011;10992;48.170;8.596;2024-03-07T09:45:19;57.30;;;34.15;;
21661;SDS011;10992;48.170;8.596;2024-03-07T09:47:49;55.75;;;34.15;;
21661;SDS011;10992;48.170;8.596;2024-03-07T09:50:20;58.78;;;35.30;;
21661;SDS011;10992;48.170;8.596;2024-03-07T09:52:54;59.95;;;36.28;;
21661;SDS011;10992;48.170;8.596;2024-03-07T09:55:22;62.83;;;36.58;;
21661;SDS011;10992;48.170;8.596;2024-03-07T09:57:53;61.40;;;36.53;;
21661;SDS011;10992;48.170;8.596;2024-03-07T10:00:23;62.05;;;38.10;;
21661;SDS011;10992;48.170;8.596;2024-03-07T10:02:55;66.60;;;36.20;;
21661;SDS011;10992;48.170;8.596;2024-03-07T10:05:26;64.57;;;37.33;;
21661;SDS011;10992;48.170;8.596;2024-03-07T10:07:54;65.95;;;37.80;;
21661;SDS011;10992;48.170;8.596;2024-03-07T10:10:21;63.22;;;36.60;;
21661;SDS011;10992;48.170;8.596;2024-03-07T10:12:49;64.15;;;36.25;;
21661;SDS011;10992;48.170;8.596;2024-03-07T10:15:18;64.88;;;39.22;;
21661;SDS011;10992;48.170;8.596;2024-03-07T10:17:46;65.07;;;37.75;;
21661;SDS011;10992;48.170;8.596;2024-03-07T10:20:13;66.68;;;39.80;;
21661;SDS011;10992;48.170;8.596;2024-03-07T10:22:45;65.45;;;38.15;;
21661;SDS011;10992;48.170;8.596;2024-03-07T10:25:12;64.13;;;38.58;;
21661;SDS011;10992;48.170;8.596;2024-03-07T10:27:39;71.90;;;39.53;;
21661;SDS011;10992;48.170;8.596;2024-03-07T10:30:06;67.13;;;37.95;;
21661;SDS011;10992;48.170;8.596;2024-03-07T10:32:34;65.38;;;38.10;;
21661;SDS011;10992;48.170;8.596;2024-03-07T10:35:02;65.60;;;37.15;;
21661;SDS011;10992;48.170;8.596;2024-03-07T10:37:34;61.78;;;34.75;;
21661;SDS011;10992;48.170;8.596;2024-03-07T10:40:02;59.80;;;33.88;;
21661;SDS011;10992;48.170;8.596;2024-03-07T10:42:45;63.45;;;36.75;;
21661;SDS011;10992;48.170;8.596;2024-03-07T10:45:18;57.67;;;34.00;;
21661;SDS011;10992;48.170;8.596;2024-03-07T10:47:52;57.10;;;32.40;;
21661;SDS011;10992;48.170;8.596;2024-03-07T10:53:07;57.55;;;34.22;;
21661;SDS011;10992;48.170;8.596;2024-03-07T10:56:18;63.30;;;35.70;;
21661;SDS011;10992;48.170;8.596;2024-03-07T10:58:56;60.88;;;34.00;;
21661;SDS011;10992;48.170;8.596;2024-03-07T11:01:26;60.05;;;35.80;;
21661;SDS011;10992;48.170;8.596;2024-03-07T11:03:57;59.80;;;36.08;;
21661;SDS011;10992;48.170;8.596;2024-03-07T11:06:25;59.28;;;33.63;;
21661;SDS011;10992;48.170;8.596;2024-03-07T11:08:53;56.45;;;32.67;;
21661;SDS011;10992;48.170;8.596;2024-03-07T11:11:21;61.22;;;35.40;;
21661;SDS011;10992;48.170;8.596;2024-03-07T11:13:49;58.47;;;33.30;;
21661;SDS011;10992;48.170;8.596;2024-03-07T11:16:16;56.58;;;32.78;;
21661;SDS011;10992;48.170;8.596;2024-03-07T11:19:17;53.53;;;32.40;;
21661;SDS011;10992;48.170;8.596;2024-03-07T11:21:58;56.25;;;32.53;;
21661;SDS011;10992;48.170;8.596;2024-03-07T11:24:26;56.38;;;32.53;;
21661;SDS011;10992;48.170;8.596;2024-03-07T11:26:59;54.85;;;32.75;;
21661;SDS011;10992;48.170;8.596;2024-03-07T11:29:38;53.17;;;31.10;;
21661;SDS011;10992;48.170;8.596;2024-03-07T11:32:10;51.53;;;30.45;;
21661;SDS011;10992;48.170;8.596;2024-03-07T11:34:41;52.60;;;30.83;;
21661;SDS011;10992;48.170;8.596;2024-03-07T11:37:19;50.80;;;29.45;;
21661;SDS011;10992;48.170;8.596;2024-03-07T11:40:03;54.65;;;31.38;;
21661;SDS011;10992;48.170;8.596;2024-03-07T11:42:46;46.88;;;28.38;;
21661;SDS011;10992;48.170;8.596;2024-03-07T11:45:14;44.92;;;28.00;;
21661;SDS011;10992;48.170;8.596;2024-03-07T11:50:35;45.78;;;27.40;;
21661;SDS011;10992;48.170;8.596;2024-03-07T11:53:04;42.20;;;26.65;;
21661;SDS011;10992;48.170;8.596;2024-03-07T11:55:39;45.10;;;29.52;;
21661;SDS011;10992;48.170;8.596;2024-03-07T11:58:13;46.40;;;28.42;;
21661;SDS011;10992;48.170;8.596;2024-03-07T12:00:44;49.30;;;28.95;;
21661;SDS011;10992;48.170;8.596;2024-03-07T12:03:16;46.28;;;28.83;;
21661;SDS011;10992;48.170;8.596;2024-03-07T12:05:48;44.10;;;26.85;;
21661;SDS011;10992;48.170;8.596;2024-03-07T12:08:19;45.47;;;28.13;;
21661;SDS011;10992;48.170;8.596;2024-03-07T12:10:51;44.72;;;27.38;;
21661;SDS011;10992;48.170;8.596;2024-03-07T12:13:24;44.95;;;27.75;;
21661;SDS011;10992;48.170;8.596;2024-03-07T12:15:53;43.67;;;28.25;;
21661;SDS011;10992;48.170;8.596;2024-03-07T12:18:21;42.40;;;27.20;;
21661;SDS011;10992;48.170;8.596;2024-03-07T12:20:49;42.25;;;26.63;;
21661;SDS011;10992;48.170;8.596;2024-03-07T12:23:26;44.33;;;28.42;;
21661;SDS011;10992;48.170;8.596;2024-03-07T12:26:00;39.72;;;26.63;;
21661;SDS011;10992;48.170;8.596;2024-03-07T12:28:29;43.60;;;26.10;;
21661;SDS011;10992;48.170;8.596;2024-03-07T12:31:05;46.25;;;27.42;;
21661;SDS011;10992;48.170;8.596;2024-03-07T12:33:42;43.95;;;27.83;;
21661;SDS011;10992;48.170;8.596;2024-03-07T12:36:13;43.33;;;26.50;;
21661;SDS011;10992;48.170;8.596;2024-03-07T12:38:40;46.38;;;28.40;;
21661;SDS011;10992;48.170;8.596;2024-03-07T12:41:09;43.45;;;26.92;;
21661;SDS011;10992;48.170;8.596;2024-03-07T12:43:42;45.65;;;27.40;;
21661;SDS011;10992;48.170;8.596;2024-03-07T12:46:13;45.67;;;28.88;;
21661;SDS011;10992;48.170;8.596;2024-03-07T12:48:42;43.35;;;26.38;;
21661;SDS011;10992;48.170;8.596;2024-03-07T12:51:12;45.53;;;27.63;;
21661;SDS011;10992;48.170;8.596;2024-03-07T12:53:45;40.97;;;26.60;;
21661;SDS011;10992;48.170;8.596;2024-03-07T12:56:13;43.45;;;26.65;;
21661;SDS011;10992;48.170;8.596;2024-03-07T12:58:44;39.78;;;25.48;;
21661;SDS011;10992;48.170;8.596;2024-03-07T13:01:13;42.70;;;26.42;;
21661;SDS011;10992;48.170;8.596;2024-03-07T13:03:40;46.78;;;27.02;;
21661;SDS011;10992;48.170;8.596;2024-03-07T13:06:11;44.88;;;28.08;;
21661;SDS011;10992;48.170;8.596;2024-03-07T13:08:38;48.45;;;27.23;;
21661;SDS011;10992;48.170;8.596;2024-03-07T13:11:07;43.35;;;26.77;;
21661;SDS011;10992;48.170;8.596;2024-03-07T13:13:36;44.20;;;27.92;;
21661;SDS011;10992;48.170;8.596;2024-03-07T13:16:03;42.70;;;27.30;;
21661;SDS011;10992;48.170;8.596;2024-03-07T13:18:31;49.13;;;27.17;;
21661;SDS011;10992;48.170;8.596;2024-03-07T13:21:02;41.25;;;27.08;;
21661;SDS011;10992;48.170;8.596;2024-03-07T13:23:31;45.13;;;27.30;;
21661;SDS011;10992;48.170;8.596;2024-03-07T13:26:01;44.97;;;27.52;;
21661;SDS011;10992;48.170;8.596;2024-03-07T13:28:28;45.15;;;28.45;;
21661;SDS011;10992;48.170;8.596;2024-03-07T13:30:56;43.67;;;27.73;;
21661;SDS011;10992;48.170;8.596;2024-03-07T13:33:23;42.80;;;26.50;;
21661;SDS011;10992;48.170;8.596;2024-03-07T13:35:51;45.60;;;26.80;;
21661;SDS011;10992;48.170;8.596;2024-03-07T13:38:19;47.28;;;28.23;;
21661;SDS011;10992;48.170;8.596;2024-03-07T13:40:46;42.90;;;26.80;;
21661;SDS011;10992;48.170;8.596;2024-03-07T13:43:12;46.25;;;28.77;;
21661;SDS011;10992;48.170;8.596;2024-03-07T13:45:41;49.00;;;28.13;;
21661;SDS011;10992;48.170;8.596;2024-03-07T13:48:10;50.95;;;28.20;;
21661;SDS011;10992;48.170;8.596;2024-03-07T13:50:40;43.53;;;27.80;;
21661;SDS011;10992;48.170;8.596;2024-03-07T13:53:24;47.00;;;29.23;;
21661;SDS011;10992;48.170;8.596;2024-03-07T14:10:17;48.50;;;28.17;;
21661;SDS011;10992;48.170;8.596;2024-03-07T14:13:17;47.72;;;28.13;;
21661;SDS011;10992;48.170;8.596;2024-03-07T14:19:22;45.40;;;26.92;;
21661;SDS011;10992;48.170;8.596;2024-03-07T14:23:10;49.53;;;27.90;;
21661;SDS011;10992;48.170;8.596;2024-03-07T14:25:44;45.85;;;26.13;;
21661;SDS011;10992;48.170;8.596;2024-03-07T14:31:04;46.17;;;27.83;;
21661;SDS011;10992;48.170;8.596;2024-03-07T14:33:47;42.00;;;24.38;;
21661;SDS011;10992;48.170;8.596;2024-03-07T14:36:17;46.88;;;28.30;;
21661;SDS011;10992;48.170;8.596;2024-03-07T14:38:49;47.25;;;26.52;;
21661;SDS011;10992;48.170;8.596;2024-03-07T14:44:16;41.95;;;25.85;;
21661;SDS011;10992;48.170;8.596;2024-03-07T14:46:46;43.45;;;26.27;;
21661;SDS011;10992;48.170;8.596;2024-03-07T14:49:16;47.00;;;26.10;;
21661;SDS011;10992;48.170;8.596;2024-03-07T14:51:44;48.85;;;27.90;;
21661;SDS011;10992;48.170;8.596;2024-03-07T14:54:25;42.22;;;27.33;;
21661;SDS011;10992;48.170;8.596;2024-03-07T14:56:53;44.88;;;28.60;;
21661;SDS011;10992;48.170;8.596;2024-03-07T14:59:20;42.97;;;26.55;;
21661;SDS011;10992;48.170;8.596;2024-03-07T15:01:47;43.90;;;25.88;;
21661;SDS011;10992;48.170;8.596;2024-03-07T15:04:15;46.65;;;27.75;;